CST,Max TemperatureF,Mean TemperatureF,Min TemperatureF,Max Dew PointF,MeanDew PointF,Min DewpointF,Max Humidity, Mean Humidity, Min Humidity, Max Sea Level PressureIn, Mean Sea Level PressureIn, Min Sea Level PressureIn, Max VisibilityMiles, Mean VisibilityMiles, Min VisibilityMiles, Max Wind SpeedMPH, Mean Wind SpeedMPH, Max Gust SpeedMPH,PrecipitationIn, CloudCover, Events, WindDirDegrees
2012-1-1,52,44,36,36,24,9,90,54,27,30.32,30.05,29.63,10,10,5,31,18,45,0.00,2,Rain,281
2012-1-2,29,26,24,17,11,5,64,52,40,30.46,30.37,30.32,10,10,10,26,18,41,0.00,4,,303
2012-1-3,35,24,12,12,8,4,87,57,27,30.51,30.39,30.13,10,10,10,15,6,,0.00,0,,210
2012-1-4,46,39,32,29,22,9,64,51,36,30.18,30.06,29.99,10,10,10,15,9,22,0.00,0,,259
2012-1-5,59,46,34,32,28,24,65,51,32,30.11,30.01,29.88,10,10,10,15,9,18,0.00,0,,230
2012-1-6,61,54,48,33,30,28,55,42,31,29.83,29.78,29.73,10,10,10,17,11,24,0.00,0,,233
2012-1-7,46,38,30,29,27,25,79,62,43,30.23,30.11,29.94,10,10,10,9,6,,0.00,0,,306
2012-1-8,41,32,24,32,28,23,94,80,66,30.36,30.30,30.25,10,10,10,6,2,,0.00,3,,31
2012-1-9,48,35,22,32,26,21,96,73,37,30.29,30.21,30.12,10,7,3,13,4,17,0.00,0,,257
2012-1-10,55,42,29,30,26,21,86,55,26,30.09,30.02,29.87,10,10,10,13,5,16,0.00,0,,230
2012-1-11,54,40,27,31,26,24,88,64,33,29.75,29.63,29.55,10,10,3,9,2,,0.00,0,,328
2012-1-12,28,21,14,23,14,10,88,82,75,29.81,29.74,29.70,10,3,0,23,16,33,0.00,8,Snow,286
2012-1-13,19,16,12,10,9,7,82,75,68,30.12,30.01,29.88,10,10,7,15,11,25,0.00,6,Snow,259
2012-1-14,28,16,5,22,15,2,91,85,76,30.24,30.09,30.02,10,9,0,13,4,16,0.00,6,Snow,42
2012-1-15,42,30,17,28,23,15,96,78,54,30.31,30.22,30.02,10,8,4,22,8,25,0.00,0,,153
2012-1-16,65,52,38,49,39,30,80,67,53,29.96,29.79,29.65,10,10,10,20,9,26,0.00,1,,171
2012-1-17,51,36,21,49,26,14,95,82,69,30.32,29.97,29.61,10,8,4,24,12,33,0.11,7,Rain-Thunderstorm,295
2012-1-18,30,20,11,16,12,8,88,70,51,30.37,30.23,29.97,10,10,10,15,5,24,0.00,1,,191
2012-1-19,31,22,12,22,13,2,76,66,55,30.17,30.02,29.86,10,10,10,15,8,21,0.00,4,,353
2012-1-20,24,18,12,21,8,3,93,68,58,30.18,30.04,29.88,10,9,4,13,8,18,0.00,5,,65
2012-1-21,29,24,18,20,18,16,94,83,66,30.24,30.16,30.07,10,10,7,14,8,17,0.00,7,,37
2012-1-22,41,34,26,41,33,26,100,98,97,29.98,29.77,29.54,2,1,0,20,14,24,0.00,8,Fog-Rain,139
2012-1-23,47,40,32,47,31,25,97,79,68,30.01,29.73,29.38,10,8,0,26,13,39,0.00,7,Fog-Rain,253
2012-1-24,41,32,24,26,24,22,93,74,54,30.32,30.23,30.06,10,10,7,9,5,,0.00,1,,309
2012-1-25,34,30,26,32,28,24,96,90,81,30.30,30.22,30.07,10,7,3,13,5,,0.00,5,Rain,97
2012-1-26,39,36,32,37,34,32,100,97,89,30.00,29.85,29.73,5,3,0,13,5,,0.00,8,Fog-Rain,327
2012-1-27,38,32,27,32,29,24,94,80,57,30.02,29.96,29.79,10,10,10,13,7,20,0.00,5,,296
2012-1-28,41,34,27,32,23,18,95,68,39,30.28,30.19,30.03,10,10,5,20,12,24,0.00,1,Rain,260
2012-1-29,40,36,32,20,17,9,58,47,28,30.25,30.20,30.13,10,10,10,15,9,24,0.00,0,,262
2012-1-30,64,48,32,34,28,21,67,50,30,30.17,30.01,29.91,10,10,10,18,9,28,0.00,1,,189
2012-1-31,65,56,48,50,42,33,68,60,52,29.95,29.91,29.85,10,10,10,22,12,33,0.00,4,,204